Time;durP1;ratioP1;P1;durP2;ratioP2;P2;SDS_P1;SDS_P2;PMS_P1;PMS_P2;Temp;Humidity;BMP_temperature;BMP_pressure;BME280_temperature;BME280_humidity;BME280_pressure;Samples;Min_cycle;Max_cycle;Signal;HPM_P1;HPM_P2
2022/08/13 00:00:20;;;;;;;0.70;0.47;;;21.60;99.90;;;;;;5098105;28;20923;-71
2022/08/13 00:02:48;;;;;;;1.43;0.53;;;21.50;99.90;;;;;;5097505;28;20460;-71
2022/08/13 00:05:18;;;;;;;0.53;0.40;;;21.40;99.90;;;;;;5097209;28;20937;-72
2022/08/13 00:07:45;;;;;;;0.70;0.40;;;21.40;99.90;;;;;;5095903;28;20457;-72
2022/08/13 00:10:19;;;;;;;0.70;0.40;;;21.30;99.90;;;;;;5096148;28;20503;-72
2022/08/13 00:12:57;;;;;;;0.70;0.40;;;21.30;99.90;;;;;;5097147;28;20552;-72
2022/08/13 00:15:28;;;;;;;2.60;0.50;;;21.40;99.90;;;;;;5097120;28;20471;-72
2022/08/13 00:17:57;;;;;;;0.50;0.40;;;21.50;99.90;;;;;;5097091;28;20485;-72
2022/08/13 00:20:28;;;;;;;0.50;0.50;;;21.50;99.90;;;;;;5098023;28;20446;-71
2022/08/13 00:22:56;;;;;;;0.83;0.40;;;21.50;99.90;;;;;;5097458;28;20528;-73
2022/08/13 00:25:24;;;;;;;1.47;0.50;;;21.50;99.90;;;;;;5097689;28;20446;-72
2022/08/13 00:27:56;;;;;;;0.80;0.40;;;21.60;99.90;;;;;;5097432;28;20975;-71
2022/08/13 00:30:28;;;;;;;0.50;0.40;;;21.50;99.90;;;;;;5097557;28;20446;-73
2022/08/13 00:32:56;;;;;;;0.80;0.50;;;21.50;99.90;;;;;;5097444;28;20511;-72
2022/08/13 00:35:25;;;;;;;0.67;0.50;;;21.40;99.90;;;;;;5097477;28;20905;-73
2022/08/13 00:37:52;;;;;;;0.50;0.40;;;21.30;99.90;;;;;;5097391;28;20575;-72
2022/08/13 00:40:19;;;;;;;0.60;0.40;;;21.20;99.90;;;;;;5097144;28;20540;-73
2022/08/13 00:42:47;;;;;;;0.60;0.40;;;21.10;99.90;;;;;;5097527;28;20489;-73
2022/08/13 00:45:14;;;;;;;0.73;0.53;;;21.00;99.90;;;;;;5096999;28;20450;-72
2022/08/13 00:50:27;;;;;;;0.60;0.50;;;20.90;99.90;;;;;;5096972;28;20422;-72
2022/08/13 00:52:54;;;;;;;0.57;0.40;;;20.90;99.90;;;;;;5096312;28;20454;-72
2022/08/13 00:55:23;;;;;;;0.60;0.40;;;20.80;99.90;;;;;;5095817;28;20457;-72
2022/08/13 00:57:50;;;;;;;0.57;0.50;;;21.00;99.90;;;;;;5095876;28;20492;-72
2022/08/13 01:00:20;;;;;;;0.60;0.40;;;21.10;99.90;;;;;;5096188;28;20488;-72
2022/08/13 01:02:50;;;;;;;0.67;0.50;;;21.20;99.90;;;;;;5095572;28;20544;-71
2022/08/13 01:05:19;;;;;;;0.60;0.50;;;21.20;99.90;;;;;;5095681;28;20892;-72
2022/08/13 01:07:48;;;;;;;1.17;0.50;;;21.30;99.90;;;;;;5096011;28;20445;-72
2022/08/13 01:10:17;;;;;;;0.87;0.50;;;21.20;99.90;;;;;;5097326;28;20908;-72
2022/08/13 01:12:50;;;;;;;1.23;0.40;;;21.20;99.90;;;;;;5096573;28;20461;-72
2022/08/13 01:15:17;;;;;;;0.80;0.57;;;21.30;99.90;;;;;;5096413;28;20454;-73
2022/08/13 01:17:46;;;;;;;0.67;0.40;;;21.40;99.90;;;;;;5097170;28;20589;-72
2022/08/13 01:20:21;;;;;;;0.60;0.40;;;21.50;99.90;;;;;;5096902;28;20540;-72
2022/08/13 01:22:52;;;;;;;0.50;0.50;;;21.30;99.90;;;;;;5096780;28;20860;-73
2022/08/13 01:25:21;;;;;;;0.70;0.53;;;21.20;99.90;;;;;;5096999;28;20496;-72
2022/08/13 01:27:50;;;;;;;0.70;0.40;;;21.10;99.90;;;;;;5096583;28;20755;-72
2022/08/13 01:30:19;;;;;;;0.70;0.40;;;21.00;99.90;;;;;;5096586;28;20473;-72
2022/08/13 01:32:46;;;;;;;0.90;0.50;;;20.80;99.90;;;;;;5096712;28;20493;-71
2022/08/13 01:35:15;;;;;;;5.10;0.53;;;20.70;99.90;;;;;;5096366;28;20540;-72
2022/08/13 01:37:42;;;;;;;0.70;0.50;;;20.60;99.90;;;;;;5096422;28;20579;-72
2022/08/13 01:40:12;;;;;;;0.63;0.47;;;20.60;99.90;;;;;;5096188;28;20449;-72
2022/08/13 01:42:40;;;;;;;0.73;0.50;;;20.60;99.90;;;;;;5096521;28;20460;-71
2022/08/13 01:45:09;;;;;;;0.97;0.50;;;20.60;99.90;;;;;;5096275;28;20514;-72
2022/08/13 01:50:30;;;;;;;0.70;0.60;;;20.80;99.90;;;;;;5096134;28;20839;-72
2022/08/13 01:53:01;;;;;;;0.60;0.43;;;20.80;99.90;;;;;;5096253;28;20453;-72
2022/08/13 01:55:39;;;;;;;0.70;0.50;;;21.00;99.90;;;;;;5096557;28;20449;-73
2022/08/13 01:58:08;;;;;;;0.70;0.50;;;21.00;99.90;;;;;;5100320;28;20484;-73
2022/08/13 02:00:37;;;;;;;0.60;0.50;;;21.00;99.90;;;;;;5100435;28;20445;-72
2022/08/13 02:03:05;;;;;;;2.50;0.50;;;21.10;99.90;;;;;;5099907;28;20761;-72
2022/08/13 02:05:36;;;;;;;0.50;0.40;;;21.10;99.90;;;;;;5100334;28;20461;-72
2022/08/13 02:08:03;;;;;;;0.60;0.40;;;21.10;99.90;;;;;;5100503;28;20561;-71
2022/08/13 02:10:31;;;;;;;0.73;0.50;;;21.00;99.90;;;;;;5099918;28;20487;-73
2022/08/13 02:12:58;;;;;;;0.60;0.40;;;20.90;99.90;;;;;;5099628;28;20546;-72
2022/08/13 02:15:25;;;;;;;0.70;0.50;;;20.80;99.90;;;;;;5100043;28;20487;-72
2022/08/13 02:17:52;;;;;;;0.60;0.47;;;20.70;99.90;;;;;;5099975;28;20524;-72
2022/08/13 02:20:19;;;;;;;0.80;0.60;;;20.70;99.90;;;;;;5100084;28;20944;-72
2022/08/13 02:22:48;;;;;;;0.70;0.40;;;20.60;99.90;;;;;;5099867;28;20484;-72
2022/08/13 02:25:20;;;;;;;1.57;0.43;;;20.50;99.90;;;;;;5100166;28;20445;-72
2022/08/13 02:27:50;;;;;;;0.70;0.50;;;20.40;99.90;;;;;;5099687;28;20872;-72
2022/08/13 02:30:17;;;;;;;0.50;0.40;;;20.30;99.90;;;;;;5096960;28;20543;-73
2022/08/13 02:32:44;;;;;;;0.80;0.50;;;20.30;99.90;;;;;;5096755;28;20506;-73
2022/08/13 02:35:11;;;;;;;0.63;0.40;;;20.20;99.90;;;;;;5096798;28;20485;-72
2022/08/13 02:37:38;;;;;;;0.60;0.50;;;20.20;99.90;;;;;;5096686;28;20481;-72
2022/08/13 02:41:38;;;;;;;0.60;0.43;;;20.20;99.90;;;;;;5095838;28;20507;-72
2022/08/13 02:42:59;;;;;;;1.63;0.50;;;20.20;99.90;;;;;;5095162;28;20445;-71
2022/08/13 02:45:27;;;;;;;0.70;0.50;;;20.10;99.90;;;;;;5097698;28;20455;-72
2022/08/13 02:47:56;;;;;;;0.70;0.50;;;20.00;1.00;;;;;;5098355;28;20499;-72
2022/08/13 02:50:24;;;;;;;0.60;0.50;;;19.90;1.00;;;;;;5097978;28;20456;-72
2022/08/13 02:52:52;;;;;;;0.50;0.40;;;19.80;1.00;;;;;;5097957;28;20457;-72
2022/08/13 02:55:20;;;;;;;0.70;0.50;;;19.80;1.00;;;;;;5098644;28;20472;-72
2022/08/13 02:57:47;;;;;;;0.50;0.40;;;19.70;1.00;;;;;;5099135;28;20582;-72
2022/08/13 03:00:18;;;;;;;1.17;0.50;;;19.60;1.00;;;;;;5099395;28;20446;-71
2022/08/13 03:02:45;;;;;;;0.60;0.50;;;19.60;1.00;;;;;;5099056;28;20549;-71
2022/08/13 03:05:16;;;;;;;0.57;0.50;;;19.60;1.00;;;;;;5099391;28;20711;-71
2022/08/13 03:07:46;;;;;;;0.60;0.50;;;19.50;1.00;;;;;;5099213;28;20476;-71
2022/08/13 03:10:15;;;;;;;0.60;0.40;;;19.60;1.00;;;;;;5099677;28;20530;-71
2022/08/13 03:12:46;;;;;;;0.70;0.50;;;19.60;1.00;;;;;;5099522;28;20485;-71
2022/08/13 03:15:17;;;;;;;0.60;0.50;;;19.60;1.00;;;;;;5099193;28;20488;-71
2022/08/13 03:17:44;;;;;;;0.60;0.40;;;19.60;1.00;;;;;;5099491;28;20940;-72
2022/08/13 03:20:16;;;;;;;0.80;0.50;;;19.60;1.00;;;;;;5100080;28;20502;-71
2022/08/13 03:22:50;;;;;;;1.37;0.50;;;19.70;1.00;;;;;;5099446;28;20489;-70
2022/08/13 03:25:17;;;;;;;0.60;0.47;;;19.80;1.00;;;;;;5100354;28;20498;-71
2022/08/13 03:27:46;;;;;;;0.67;0.50;;;19.80;1.00;;;;;;5100332;28;20469;-71
2022/08/13 03:30:16;;;;;;;0.60;0.40;;;19.90;1.00;;;;;;5101555;28;20473;-71
2022/08/13 03:32:44;;;;;;;1.23;0.60;;;19.90;1.00;;;;;;5099747;28;20489;-71
2022/08/13 03:35:13;;;;;;;0.60;0.40;;;19.80;1.00;;;;;;5099368;28;20822;-71
2022/08/13 03:37:42;;;;;;;0.80;0.50;;;19.80;1.00;;;;;;5100174;28;20968;-70
2022/08/13 03:40:10;;;;;;;0.50;0.40;;;19.80;1.00;;;;;;5099508;28;20489;-71
2022/08/13 03:42:40;;;;;;;0.50;0.40;;;19.70;1.00;;;;;;5097447;28;20531;-70
2022/08/13 03:45:09;;;;;;;0.50;0.40;;;20.00;1.00;;;;;;5099051;28;20459;-71
2022/08/13 03:47:38;;;;;;;0.70;0.50;;;20.10;1.00;;;;;;5098795;28;20549;-71
2022/08/13 03:50:07;;;;;;;0.70;0.50;;;20.20;1.00;;;;;;5098384;28;20489;-71
2022/08/13 03:52:35;;;;;;;0.70;0.53;;;20.30;1.00;;;;;;5098306;28;20493;-70
2022/08/13 03:55:04;;;;;;;0.70;0.50;;;20.30;1.00;;;;;;5098734;28;20912;-71
2022/08/13 03:57:32;;;;;;;0.60;0.50;;;20.30;1.00;;;;;;5095025;28;20496;-70
2022/08/13 03:59:59;;;;;;;0.77;0.60;;;20.20;1.00;;;;;;5095126;28;20446;-72
2022/08/13 04:02:28;;;;;;;0.63;0.50;;;20.00;1.00;;;;;;5096312;28;20560;-71
2022/08/13 04:04:56;;;;;;;0.87;0.60;;;19.90;1.00;;;;;;5097969;28;20445;-71
2022/08/13 04:07:27;;;;;;;0.60;0.43;;;19.80;1.00;;;;;;5097843;28;20454;-71
2022/08/13 04:09:55;;;;;;;2.73;0.50;;;19.60;1.00;;;;;;5097941;28;20453;-71
2022/08/13 04:12:22;;;;;;;0.57;0.40;;;19.50;1.00;;;;;;5097819;28;20552;-72
2022/08/13 04:14:49;;;;;;;0.80;0.50;;;19.40;1.00;;;;;;5097684;28;20464;-72
2022/08/13 04:17:15;;;;;;;0.80;0.60;;;19.40;1.00;;;;;;5097383;28;20525;-71
2022/08/13 04:19:43;;;;;;;0.57;0.40;;;19.40;1.00;;;;;;5097149;28;20827;-71
2022/08/13 04:22:13;;;;;;;1.10;0.60;;;19.40;1.00;;;;;;5097758;28;20500;-71
2022/08/13 04:24:42;;;;;;;0.70;0.50;;;19.40;1.00;;;;;;5097124;28;20453;-71
2022/08/13 04:27:09;;;;;;;0.70;0.50;;;19.50;1.00;;;;;;5096503;28;20548;-72
2022/08/13 04:29:36;;;;;;;0.70;0.50;;;19.50;1.00;;;;;;5096447;28;20445;-70
2022/08/13 04:32:03;;;;;;;0.67;0.50;;;19.50;1.00;;;;;;5096072;28;20544;-73
2022/08/13 04:34:30;;;;;;;0.80;0.60;;;19.50;1.00;;;;;;5096364;28;20489;-71
2022/08/13 04:36:58;;;;;;;0.60;0.50;;;19.40;1.00;;;;;;5095245;28;20548;-71
2022/08/13 04:39:26;;;;;;;0.60;0.50;;;19.30;1.00;;;;;;5093910;28;20489;-71
2022/08/13 04:41:54;;;;;;;0.67;0.50;;;19.20;1.00;;;;;;5096587;28;20584;-72
2022/08/13 04:44:21;;;;;;;0.60;0.40;;;19.00;1.00;;;;;;5097238;28;20456;-73
2022/08/13 04:46:48;;;;;;;0.60;0.50;;;18.90;1.00;;;;;;5096643;28;20450;-73
2022/08/13 04:49:15;;;;;;;0.70;0.50;;;18.90;1.00;;;;;;5096756;28;20524;-73
2022/08/13 04:51:42;;;;;;;0.60;0.50;;;18.90;1.00;;;;;;5096995;28;20540;-73
2022/08/13 04:54:08;;;;;;;0.60;0.40;;;18.90;1.00;;;;;;5097370;28;20452;-73
2022/08/13 04:56:37;;;;;;;0.60;0.47;;;18.90;1.00;;;;;;5097065;28;20507;-73
2022/08/13 04:59:05;;;;;;;1.27;0.50;;;19.00;1.00;;;;;;5097124;28;20535;-73
2022/08/13 05:01:32;;;;;;;1.00;0.50;;;19.10;1.00;;;;;;5096816;28;20487;-72
2022/08/13 05:03:59;;;;;;;0.70;0.60;;;19.10;1.00;;;;;;5095862;28;20452;-72
2022/08/13 05:06:26;;;;;;;0.53;0.50;;;19.10;1.00;;;;;;5095996;28;20812;-73
2022/08/13 05:08:53;;;;;;;1.87;0.60;;;19.00;1.00;;;;;;5096629;28;20891;-72
2022/08/13 05:11:20;;;;;;;0.77;0.60;;;19.10;1.00;;;;;;5096652;28;20881;-72
2022/08/13 05:13:49;;;;;;;0.50;0.40;;;19.00;1.00;;;;;;5096951;28;20497;-74
2022/08/13 05:16:17;;;;;;;0.93;0.50;;;19.00;1.00;;;;;;5096179;28;20462;-73
2022/08/13 05:18:53;;;;;;;0.90;0.60;;;19.00;1.00;;;;;;5096864;28;20538;-73
2022/08/13 05:21:23;;;;;;;0.90;0.60;;;19.00;1.00;;;;;;5096300;28;20898;-72
2022/08/13 05:23:53;;;;;;;0.70;0.53;;;19.10;1.00;;;;;;5096262;28;20935;-72
2022/08/13 05:26:22;;;;;;;0.60;0.50;;;19.20;1.00;;;;;;5097131;28;20453;-72
2022/08/13 05:28:51;;;;;;;0.80;0.50;;;19.30;1.00;;;;;;5096921;28;20450;-73
2022/08/13 05:31:18;;;;;;;0.70;0.50;;;19.40;1.00;;;;;;5095153;28;20434;-72
2022/08/13 05:33:46;;;;;;;0.70;0.50;;;19.50;1.00;;;;;;5095032;28;20457;-72
2022/08/13 05:36:13;;;;;;;0.57;0.40;;;19.40;1.00;;;;;;5095997;28;20532;-72
2022/08/13 05:38:40;;;;;;;0.90;0.70;;;19.40;1.00;;;;;;5095113;28;20492;-72
2022/08/13 05:41:10;;;;;;;1.10;0.50;;;19.40;1.00;;;;;;5095795;28;20445;-71
2022/08/13 05:43:37;;;;;;;1.27;0.50;;;19.50;1.00;;;;;;5096524;28;20889;-72
2022/08/13 05:46:09;;;;;;;1.13;0.70;;;19.60;1.00;;;;;;5096431;28;20546;-72
2022/08/13 05:48:38;;;;;;;0.80;0.50;;;19.60;1.00;;;;;;5096494;28;20876;-71
2022/08/13 05:51:07;;;;;;;1.17;0.50;;;19.60;1.00;;;;;;5095111;28;20480;-73
2022/08/13 05:53:35;;;;;;;0.53;0.50;;;19.60;1.00;;;;;;5094891;28;20912;-72
2022/08/13 05:56:04;;;;;;;0.50;0.50;;;19.70;1.00;;;;;;5094537;28;20454;-72
2022/08/13 05:58:31;;;;;;;0.77;0.60;;;19.80;1.00;;;;;;5095426;28;20525;-73
2022/08/13 06:03:55;;;;;;;0.60;0.60;;;19.70;1.00;;;;;;5053617;28;20874;-73
2022/08/13 06:06:22;;;;;;;0.80;0.60;;;19.80;1.00;;;;;;5086987;28;20446;-72
2022/08/13 06:08:49;;;;;;;0.80;0.53;;;19.80;1.00;;;;;;5096328;28;20463;-73
2022/08/13 06:11:17;;;;;;;0.70;0.50;;;19.90;1.00;;;;;;5096618;28;20473;-72
2022/08/13 06:13:48;;;;;;;0.80;0.60;;;19.80;1.00;;;;;;5095392;28;20540;-73
2022/08/13 06:16:17;;;;;;;1.10;0.70;;;19.80;1.00;;;;;;5096761;28;20453;-72
2022/08/13 06:18:46;;;;;;;0.73;0.60;;;19.70;1.00;;;;;;5096192;28;20784;-72
2022/08/13 06:21:16;;;;;;;0.90;0.50;;;19.50;1.00;;;;;;5094631;28;20453;-72
2022/08/13 06:23:45;;;;;;;1.57;0.50;;;19.60;1.00;;;;;;5095895;28;20528;-72
2022/08/13 06:26:15;;;;;;;1.30;0.63;;;19.70;1.00;;;;;;5096042;28;20460;-73
2022/08/13 06:28:44;;;;;;;0.70;0.50;;;19.80;1.00;;;;;;5096486;28;20825;-72
2022/08/13 06:31:16;;;;;;;0.60;0.50;;;19.70;1.00;;;;;;5096200;28;20525;-73
2022/08/13 06:33:46;;;;;;;0.80;0.60;;;19.80;1.00;;;;;;5095743;28;20919;-72
2022/08/13 06:36:16;;;;;;;1.67;0.53;;;19.80;1.00;;;;;;5096028;28;20442;-72
2022/08/13 06:38:45;;;;;;;0.90;0.60;;;20.00;1.00;;;;;;5095249;28;20846;-72
2022/08/13 06:41:13;;;;;;;3.40;0.60;;;20.10;1.00;;;;;;5094751;28;20536;-72
2022/08/13 06:43:42;;;;;;;1.10;0.60;;;20.30;1.00;;;;;;5096687;28;20459;-72
2022/08/13 06:46:11;;;;;;;0.70;0.50;;;20.30;1.00;;;;;;5097644;28;20199;-71
2022/08/13 06:48:39;;;;;;;0.60;0.50;;;20.30;1.00;;;;;;5097660;28;20457;-72
2022/08/13 06:51:09;;;;;;;1.33;0.50;;;20.30;1.00;;;;;;5097285;28;20445;-72
2022/08/13 06:53:41;;;;;;;0.77;0.50;;;20.40;1.00;;;;;;5097426;28;20477;-71
2022/08/13 06:56:11;;;;;;;1.00;0.70;;;20.20;1.00;;;;;;5098662;28;20473;-72
2022/08/13 06:58:39;;;;;;;1.10;0.63;;;20.10;1.00;;;;;;5098007;28;20491;-73
2022/08/13 07:01:07;;;;;;;1.00;0.60;;;20.20;1.00;;;;;;5098848;28;20480;-73
2022/08/13 07:03:35;;;;;;;0.80;0.70;;;20.30;1.00;;;;;;5098293;28;20453;-72
2022/08/13 07:06:02;;;;;;;1.67;0.50;;;20.40;1.00;;;;;;5099104;28;20532;-72
2022/08/13 07:08:31;;;;;;;0.70;0.53;;;20.50;1.00;;;;;;5098808;28;20846;-72
2022/08/13 07:13:47;;;;;;;0.90;0.70;;;20.50;1.00;;;;;;5098989;28;20966;-72
2022/08/13 07:16:16;;;;;;;0.60;0.50;;;20.50;1.00;;;;;;5099438;28;20959;-72
2022/08/13 07:18:43;;;;;;;0.90;0.70;;;20.70;1.00;;;;;;5099110;28;20945;-73
2022/08/13 07:21:13;;;;;;;1.17;0.60;;;20.80;1.00;;;;;;5098102;28;20496;-72
2022/08/13 07:23:42;;;;;;;0.80;0.60;;;20.90;1.00;;;;;;5098122;28;20580;-74
2022/08/13 07:26:13;;;;;;;1.00;0.70;;;21.20;1.00;;;;;;5098634;28;20920;-72
2022/08/13 07:28:41;;;;;;;0.80;0.60;;;21.50;1.00;;;;;;5098977;28;20548;-73
2022/08/13 07:31:10;;;;;;;0.87;0.60;;;21.60;1.00;;;;;;5096976;28;20895;-72
2022/08/13 07:33:38;;;;;;;0.70;0.60;;;21.60;1.00;;;;;;5097868;28;20496;-72
2022/08/13 07:36:08;;;;;;;0.73;0.50;;;21.60;1.00;;;;;;5097665;28;20484;-73
2022/08/13 07:38:36;;;;;;;0.80;0.53;;;21.70;1.00;;;;;;5097535;28;20486;-72
2022/08/13 07:41:04;;;;;;;0.82;0.70;;;21.90;1.00;;;;;;5096733;28;20455;-72
2022/08/13 07:43:39;;;;;;;0.67;0.60;;;22.00;1.00;;;;;;5095987;28;20227;-72
2022/08/13 07:46:10;;;;;;;0.77;0.63;;;22.10;1.00;;;;;;5104100;28;20543;-71
2022/08/13 07:48:38;;;;;;;0.80;0.70;;;22.20;1.00;;;;;;5110191;28;20918;-72
2022/08/13 07:51:12;;;;;;;1.00;0.60;;;22.20;1.00;;;;;;5116473;28;20449;-71
2022/08/13 07:53:40;;;;;;;1.17;0.70;;;22.30;1.00;;;;;;5115588;28;20480;-73
2022/08/13 07:56:08;;;;;;;1.17;0.97;;;22.40;1.00;;;;;;5117004;28;20539;-71
2022/08/13 07:58:37;;;;;;;0.90;0.60;;;22.40;1.00;;;;;;5110439;28;20516;-71
2022/08/13 08:01:06;;;;;;;0.70;0.53;;;22.20;1.00;;;;;;5118295;28;20536;-72
2022/08/13 08:03:37;;;;;;;0.90;0.60;;;22.20;1.00;;;;;;5111470;28;20483;-71
2022/08/13 08:06:05;;;;;;;1.33;0.60;;;22.10;1.00;;;;;;5118641;28;20772;-73
2022/08/13 08:08:33;;;;;;;0.80;0.70;;;22.30;1.00;;;;;;5116928;28;20456;-73
2022/08/13 08:11:02;;;;;;;0.77;0.60;;;22.50;1.00;;;;;;5117787;28;20890;-73
2022/08/13 08:13:31;;;;;;;0.80;0.70;;;22.60;1.00;;;;;;5117040;28;20460;-72
2022/08/13 08:16:01;;;;;;;3.17;0.70;;;22.70;1.00;;;;;;5118363;28;20449;-72
2022/08/13 08:18:28;;;;;;;0.90;0.70;;;22.70;1.00;;;;;;5117632;28;20509;-72
2022/08/13 08:21:05;;;;;;;0.70;0.60;;;22.60;1.00;;;;;;5117811;28;20480;-72
2022/08/13 08:23:34;;;;;;;0.88;0.70;;;22.70;1.00;;;;;;5116702;27;20918;-72
2022/08/13 08:26:06;;;;;;;0.80;0.60;;;22.80;1.00;;;;;;5118234;28;20260;-72
2022/08/13 08:28:35;;;;;;;3.23;0.90;;;22.80;1.00;;;;;;5117438;28;20449;-72
2022/08/13 08:31:06;;;;;;;0.90;0.60;;;22.90;1.00;;;;;;5116138;28;20445;-72
2022/08/13 08:33:34;;;;;;;0.70;0.60;;;23.10;1.00;;;;;;5116715;28;20456;-73
2022/08/13 08:36:03;;;;;;;0.90;0.60;;;23.30;1.00;;;;;;5116973;28;20463;-72
2022/08/13 08:44:04;;;;;;;1.10;0.63;;;23.70;1.00;;;;;;5116267;28;20416;-72
2022/08/13 08:46:34;;;;;;;0.73;0.70;;;23.50;1.00;;;;;;5115235;28;20554;-72
2022/08/13 08:49:04;;;;;;;0.87;0.60;;;23.50;1.00;;;;;;5098415;28;20500;-72
2022/08/13 08:51:33;;;;;;;0.80;0.70;;;23.50;1.00;;;;;;5111787;28;20452;-72
2022/08/13 08:54:01;;;;;;;0.67;0.50;;;23.50;1.00;;;;;;5115679;28;20483;-72
2022/08/13 08:56:34;;;;;;;0.70;0.60;;;23.60;1.00;;;;;;5116259;28;20449;-71
2022/08/13 08:59:01;;;;;;;0.80;0.70;;;23.70;1.00;;;;;;5106346;28;20507;-72
2022/08/13 09:01:33;;;;;;;0.77;0.60;;;23.80;1.00;;;;;;5115678;28;20456;-72
2022/08/13 09:04:04;;;;;;;0.80;0.80;;;23.80;1.00;;;;;;5111645;28;20469;-72
2022/08/13 09:06:31;;;;;;;0.83;0.60;;;24.00;1.00;;;;;;5113842;28;20532;-71
2022/08/13 09:08:59;;;;;;;0.80;0.70;;;24.00;1.00;;;;;;5110830;28;20896;-72
2022/08/13 09:11:29;;;;;;;0.73;0.60;;;24.00;1.00;;;;;;5109204;28;20960;-72
2022/08/13 09:13:56;;;;;;;2.33;0.63;;;24.20;1.00;;;;;;5113751;28;20578;-73
2022/08/13 09:16:23;;;;;;;0.70;0.60;;;24.20;1.00;;;;;;5107802;28;20523;-71
2022/08/13 09:18:51;;;;;;;0.73;0.63;;;24.40;1.00;;;;;;5112556;28;20791;-72
2022/08/13 09:21:26;;;;;;;1.00;0.70;;;24.60;1.00;;;;;;5114371;27;20449;-70
2022/08/13 09:23:53;;;;;;;0.70;0.60;;;24.90;1.00;;;;;;5098808;28;20494;-72
2022/08/13 09:26:20;;;;;;;0.70;0.63;;;25.20;1.00;;;;;;5115938;28;20447;-71
2022/08/13 09:28:49;;;;;;;2.43;1.20;;;25.10;1.00;;;;;;5114406;27;20753;-71
2022/08/13 09:31:17;;;;;;;0.80;0.77;;;25.10;1.00;;;;;;5108819;28;20445;-72
2022/08/13 09:33:44;;;;;;;1.00;0.60;;;25.10;1.00;;;;;;5115478;28;20539;-73
2022/08/13 09:36:12;;;;;;;0.70;0.60;;;25.10;1.00;;;;;;5115265;28;20494;-72
2022/08/13 09:38:41;;;;;;;0.70;0.70;;;25.10;99.90;;;;;;5115448;28;20535;-72
2022/08/13 09:41:17;;;;;;;0.70;0.60;;;25.10;1.00;;;;;;5114363;28;20958;-70
2022/08/13 09:43:45;;;;;;;1.80;0.57;;;25.10;99.90;;;;;;5100435;28;20915;-72
2022/08/13 09:46:16;;;;;;;0.80;0.60;;;25.20;99.90;;;;;;5111770;28;20496;-72
2022/08/13 09:48:44;;;;;;;0.70;0.63;;;25.50;99.90;;;;;;5111283;28;20895;-73
2022/08/13 09:51:13;;;;;;;0.90;0.70;;;25.60;99.90;;;;;;5115313;28;20819;-72
2022/08/13 09:53:46;;;;;;;1.03;0.57;;;25.60;99.90;;;;;;5111356;28;20502;-72
2022/08/13 09:56:14;;;;;;;0.80;0.60;;;25.70;99.90;;;;;;5115623;28;20880;-72
2022/08/13 09:58:41;;;;;;;0.50;0.50;;;25.70;99.90;;;;;;5115086;28;20505;-72
2022/08/13 10:01:11;;;;;;;0.80;0.50;;;25.90;99.90;;;;;;5115584;28;20476;-69
2022/08/13 10:03:40;;;;;;;0.63;0.57;;;26.10;99.90;;;;;;5115101;28;20475;-72
2022/08/13 10:06:08;;;;;;;0.70;0.50;;;26.10;99.90;;;;;;5115280;28;20440;-70
2022/08/13 10:08:35;;;;;;;2.10;0.50;;;26.10;99.90;;;;;;5113647;28;20436;-71
2022/08/13 10:11:04;;;;;;;1.10;0.60;;;26.20;99.90;;;;;;5110395;28;20452;-71
2022/08/13 10:13:33;;;;;;;1.23;0.60;;;26.20;99.90;;;;;;5095339;28;20888;-71
2022/08/13 10:16:00;;;;;;;1.77;0.63;;;26.40;99.90;;;;;;5097017;28;20496;-71
2022/08/13 10:18:31;;;;;;;0.60;0.50;;;26.50;99.90;;;;;;5122302;27;20461;-72
2022/08/13 10:20:58;;;;;;;0.63;0.50;;;26.60;99.90;;;;;;5109673;28;20520;-71
2022/08/13 10:23:25;;;;;;;0.93;0.60;;;26.90;99.90;;;;;;5097867;28;20552;-71
2022/08/13 10:25:53;;;;;;;0.73;0.57;;;27.00;99.90;;;;;;5113393;28;20460;-71
2022/08/13 10:28:25;;;;;;;0.60;0.50;;;26.70;99.90;;;;;;5117007;28;20497;-71
2022/08/13 10:30:54;;;;;;;0.80;0.60;;;26.50;99.90;;;;;;5117813;28;20538;-72
2022/08/13 10:33:23;;;;;;;0.80;0.60;;;26.50;99.90;;;;;;5115622;28;20767;-71
2022/08/13 10:35:55;;;;;;;0.70;0.60;;;26.70;99.90;;;;;;5116606;28;20537;-70
2022/08/13 10:38:25;;;;;;;0.60;0.50;;;26.70;99.90;;;;;;5118228;28;20440;-72
2022/08/13 10:40:52;;;;;;;2.90;0.50;;;26.90;99.90;;;;;;5116459;28;20484;-72
2022/08/13 10:43:19;;;;;;;0.70;0.50;;;27.00;99.90;;;;;;5116100;28;20485;-72
2022/08/13 10:45:47;;;;;;;1.30;0.60;;;27.00;99.90;;;;;;5116963;28;20497;-73
2022/08/13 10:48:14;;;;;;;1.00;0.50;;;26.80;99.90;;;;;;5117741;28;20539;-72
2022/08/13 10:50:42;;;;;;;0.60;0.50;;;26.80;99.90;;;;;;5116951;28;20460;-71
2022/08/13 10:53:54;;;;;;;1.23;0.50;;;26.80;99.90;;;;;;5116256;28;20730;-72
2022/08/13 10:55:56;;;;;;;0.90;0.73;;;26.90;99.90;;;;;;5118547;28;20549;-72
2022/08/13 10:58:23;;;;;;;1.30;0.80;;;26.90;99.90;;;;;;5118961;28;20480;-72
2022/08/13 11:00:51;;;;;;;1.00;0.60;;;27.00;99.90;;;;;;5119114;28;20476;-72
2022/08/13 11:03:18;;;;;;;0.60;0.50;;;27.40;99.90;;;;;;5118170;28;20486;-71
2022/08/13 11:05:47;;;;;;;0.60;0.47;;;27.70;99.90;;;;;;5118112;28;20584;-71
2022/08/13 11:08:14;;;;;;;0.90;0.60;;;28.10;99.90;;;;;;5118815;28;20461;-72
2022/08/13 11:10:41;;;;;;;0.50;0.43;;;28.40;99.90;;;;;;5118309;28;20480;-71
2022/08/13 11:13:10;;;;;;;0.60;0.50;;;28.80;99.90;;;;;;5117683;28;20484;-71
2022/08/13 11:15:37;;;;;;;0.80;0.60;;;29.30;99.90;;;;;;5119013;28;20452;-69
2022/08/13 11:18:08;;;;;;;1.10;0.70;;;29.80;99.90;;;;;;5118782;28;20528;-71
2022/08/13 11:20:50;;;;;;;2.40;0.50;;;29.90;99.90;;;;;;5104935;28;20886;-71
2022/08/13 11:23:18;;;;;;;0.80;0.60;;;29.80;99.90;;;;;;5098110;28;20478;-71
2022/08/13 11:25:45;;;;;;;0.57;0.40;;;30.30;99.90;;;;;;5105058;28;20452;-71
2022/08/13 11:28:13;;;;;;;0.80;0.60;;;30.60;99.90;;;;;;5116759;28;20445;-71
2022/08/13 11:30:40;;;;;;;0.80;0.50;;;30.50;99.90;;;;;;5117826;28;20926;-72
2022/08/13 11:33:09;;;;;;;1.60;0.53;;;30.70;99.90;;;;;;5118406;28;20532;-71
2022/08/13 11:35:36;;;;;;;0.80;0.50;;;31.00;99.90;;;;;;5117879;28;20887;-72
2022/08/13 11:38:07;;;;;;;0.70;0.50;;;31.40;99.90;;;;;;5117768;28;20489;-71
2022/08/13 11:40:34;;;;;;;0.70;0.53;;;31.30;99.90;;;;;;5116909;28;20520;-71
2022/08/13 11:43:01;;;;;;;0.67;0.60;;;31.20;99.90;;;;;;5117540;28;20871;-71
2022/08/13 11:45:28;;;;;;;0.60;0.50;;;31.20;99.90;;;;;;5116539;28;20460;-73
2022/08/13 11:47:55;;;;;;;1.57;0.70;;;31.40;99.90;;;;;;5116324;28;20854;-72
2022/08/13 11:50:23;;;;;;;0.80;0.60;;;31.30;99.90;;;;;;5115018;28;20820;-71
2022/08/13 11:52:50;;;;;;;0.80;0.60;;;31.40;99.90;;;;;;5116693;28;20505;-72
2022/08/13 11:55:17;;;;;;;0.60;0.50;;;31.60;99.90;;;;;;5116981;28;20561;-70
2022/08/13 11:57:44;;;;;;;0.60;0.50;;;31.90;99.90;;;;;;5116517;28;20453;-70
2022/08/13 12:00:14;;;;;;;0.60;0.50;;;32.10;99.90;;;;;;5116513;28;20480;-71
2022/08/13 12:02:41;;;;;;;0.50;0.40;;;32.00;99.90;;;;;;5117843;28;20456;-72
2022/08/13 12:05:09;;;;;;;0.60;0.40;;;32.10;99.90;;;;;;5116870;28;20525;-72
2022/08/13 12:07:40;;;;;;;0.63;0.57;;;31.80;99.90;;;;;;5115534;28;20495;-71
2022/08/13 12:10:07;;;;;;;1.27;0.50;;;31.90;99.90;;;;;;5116627;28;20822;-71
2022/08/13 12:12:34;;;;;;;0.50;0.40;;;31.90;99.90;;;;;;5117107;28;20946;-71
2022/08/13 12:15:01;;;;;;;2.10;0.50;;;31.50;99.90;;;;;;5116653;28;20515;-71
2022/08/13 12:17:28;;;;;;;0.70;0.60;;;31.40;99.90;;;;;;5116874;28;20505;-71
2022/08/13 12:19:56;;;;;;;0.57;0.50;;;31.40;99.90;;;;;;5117017;28;20527;-72
2022/08/13 12:22:22;;;;;;;0.60;0.40;;;31.80;99.90;;;;;;5122754;27;20533;-72
2022/08/13 12:24:52;;;;;;;2.60;0.50;;;31.50;99.90;;;;;;5138758;27;20460;-71
2022/08/13 12:27:18;;;;;;;0.70;0.60;;;31.50;99.90;;;;;;5138301;27;20491;-71
2022/08/13 12:29:45;;;;;;;0.70;0.60;;;31.40;99.90;;;;;;5138077;27;20471;-71
2022/08/13 12:32:12;;;;;;;0.60;0.43;;;31.40;99.90;;;;;;5138280;27;20502;-71
2022/08/13 12:34:39;;;;;;;1.70;0.60;;;31.50;99.90;;;;;;5137275;27;20447;-71
2022/08/13 12:37:06;;;;;;;0.90;0.50;;;31.70;99.90;;;;;;5137668;27;20547;-72
2022/08/13 12:39:33;;;;;;;0.70;0.50;;;32.10;99.90;;;;;;5136848;27;20504;-71
2022/08/13 12:42:01;;;;;;;0.70;0.60;;;32.60;99.90;;;;;;5137396;27;20487;-72
2022/08/13 12:44:28;;;;;;;0.60;0.50;;;32.80;99.90;;;;;;5137584;27;20745;-71
2022/08/13 12:46:55;;;;;;;0.70;0.50;;;32.50;99.90;;;;;;5136667;27;20850;-71
2022/08/13 12:49:22;;;;;;;0.73;0.60;;;32.70;99.90;;;;;;5136168;27;20546;-71
2022/08/13 12:51:49;;;;;;;0.70;0.60;;;32.60;99.90;;;;;;5135159;27;20555;-71
2022/08/13 12:54:16;;;;;;;0.67;0.57;;;32.40;99.90;;;;;;5133711;27;20551;-70
2022/08/13 12:56:45;;;;;;;0.60;0.50;;;32.50;99.90;;;;;;5133921;27;20546;-72
2022/08/13 12:59:13;;;;;;;0.77;0.50;;;32.10;99.90;;;;;;5134907;27;20458;-70
2022/08/13 13:01:40;;;;;;;0.70;0.50;;;31.70;99.90;;;;;;5134439;27;20582;-71
2022/08/13 13:04:07;;;;;;;1.70;0.47;;;31.10;99.90;;;;;;5136079;27;20479;-70
2022/08/13 13:06:33;;;;;;;0.60;0.57;;;30.70;99.90;;;;;;5137307;27;20526;-70
2022/08/13 13:09:01;;;;;;;0.60;0.47;;;30.70;99.90;;;;;;5137463;27;20483;-71
2022/08/13 13:11:27;;;;;;;0.70;0.50;;;31.00;99.90;;;;;;5136128;27;20989;-71
2022/08/13 13:13:54;;;;;;;0.70;0.50;;;31.20;99.90;;;;;;5136947;27;20542;-71
2022/08/13 13:16:23;;;;;;;2.50;0.50;;;31.30;99.90;;;;;;5136812;27;20487;-72